Terminal Aerodrome Forecast
Issued by NWS

Home | Current Version | Previous Version | Text Only | Print | Product List | Glossary On
Versions: 1 2 3 4 5 6 7 8 9 10 11 12 13 14
000
FTUS43 KGRR 221100
TAFBTL
TAF
KBTL 221140Z 2212/2312 18008KT P6SM SKC
     FM221600 21013G22KT P6SM FEW120
     FM230100 21014G22KT 4SM HZ VCTS OVC050CB
     FM230500 33010G20KT 4SM BR BKN100
     FM231000 35010G20KT P6SM BKN020=

USA.gov is the U.S. government's official web portal to all federal, state and local government web resources and services.